createdAt,value
2024-02-06T00:00:38.242Z,100.00
2024-02-06T00:02:41.035Z,100.00
2024-02-06T00:04:43.929Z,100.00
2024-02-06T00:06:46.668Z,100.00
2024-02-06T00:08:49.734Z,100.00
2024-02-06T00:10:52.580Z,100.00
2024-02-06T00:12:55.441Z,100.00
2024-02-06T00:14:58.161Z,100.00
2024-02-06T00:17:00.849Z,100.00
2024-02-06T00:19:03.633Z,100.00
2024-02-06T00:21:06.722Z,100.00
2024-02-06T00:23:09.485Z,100.00
2024-02-06T00:25:12.197Z,100.00
2024-02-06T00:27:15.090Z,100.00
2024-02-06T00:29:18.024Z,100.00
2024-02-06T00:31:20.738Z,100.00
2024-02-06T00:33:23.687Z,100.00
2024-02-06T00:35:26.392Z,100.00
2024-02-06T00:37:32.067Z,100.00
2024-02-06T00:39:34.967Z,100.00
2024-02-06T00:41:38.897Z,100.00
2024-02-06T00:43:41.818Z,100.00
2024-02-06T00:45:44.509Z,100.00
2024-02-06T00:47:51.244Z,100.00
2024-02-06T00:49:54.572Z,100.00
2024-02-06T00:51:57.425Z,100.00
2024-02-06T00:54:00.152Z,100.00
2024-02-06T00:56:06.697Z,100.00
2024-02-06T00:58:10.454Z,100.00
2024-02-06T01:00:14.220Z,100.00
2024-02-06T01:02:17.088Z,100.00
2024-02-06T01:04:19.975Z,100.00
2024-02-06T01:06:23.085Z,100.00
2024-02-06T01:08:25.974Z,100.00
2024-02-06T01:10:28.909Z,100.00
2024-02-06T01:12:31.722Z,100.00
2024-02-06T01:14:34.467Z,100.00
2024-02-06T01:16:37.474Z,100.00
2024-02-06T01:18:40.294Z,100.00
2024-02-06T01:20:43.186Z,100.00
2024-02-06T01:22:45.861Z,100.00
2024-02-06T01:24:48.616Z,100.00
2024-02-06T01:26:51.900Z,100.00
2024-02-06T01:28:54.607Z,100.00
2024-02-06T01:30:58.307Z,100.00
2024-02-06T01:33:01.364Z,100.00
2024-02-06T01:35:04.913Z,100.00
2024-02-06T01:37:08.748Z,100.00
2024-02-06T01:39:13.267Z,100.00
2024-02-06T01:41:16.064Z,100.00
2024-02-06T01:43:19.321Z,100.00
2024-02-06T01:45:22.155Z,100.00
2024-02-06T01:47:25.728Z,100.00
2024-02-06T01:49:28.801Z,100.00
2024-02-06T01:51:36.528Z,100.00
2024-02-06T01:53:39.369Z,100.00
2024-02-06T01:55:43.200Z,100.00
2024-02-06T01:57:47.346Z,100.00
2024-02-06T01:59:50.674Z,100.00
2024-02-06T02:01:54.119Z,100.00
2024-02-06T02:03:58.361Z,100.00
2024-02-06T02:06:01.515Z,100.00
2024-02-06T02:08:04.692Z,100.00
2024-02-06T02:10:08.847Z,100.00
2024-02-06T02:12:12.141Z,100.00
2024-02-06T02:14:15.196Z,100.00
2024-02-06T02:16:21.262Z,100.00
2024-02-06T02:18:31.681Z,100.00
2024-02-06T02:20:34.754Z,100.00
2024-02-06T02:22:37.975Z,100.00
2024-02-06T02:24:40.791Z,100.00
2024-02-06T02:26:45.003Z,100.00
2024-02-06T02:28:48.181Z,100.00
2024-02-06T02:30:51.189Z,100.00
2024-02-06T02:32:56.105Z,100.00
2024-02-06T02:34:58.953Z,100.00
2024-02-06T02:37:01.736Z,100.00
2024-02-06T02:39:05.155Z,100.00
2024-02-06T02:41:08.156Z,100.00
2024-02-06T02:43:10.885Z,100.00
2024-02-06T02:45:13.716Z,100.00
2024-02-06T02:47:16.607Z,100.00
2024-02-06T02:49:19.555Z,100.00
2024-02-06T02:51:22.357Z,100.00
2024-02-06T02:53:25.354Z,100.00
2024-02-06T02:55:28.233Z,100.00
2024-02-06T02:57:30.963Z,100.00
2024-02-06T02:59:33.965Z,100.00
2024-02-06T03:01:36.860Z,100.00
2024-02-06T03:03:39.778Z,100.00
2024-02-06T03:05:42.535Z,100.00
2024-02-06T03:07:45.816Z,100.00
2024-02-06T03:09:48.622Z,100.00
2024-02-06T03:11:52.478Z,100.00
2024-02-06T03:13:55.279Z,100.00
2024-02-06T03:15:58.179Z,100.00
2024-02-06T03:18:01.231Z,100.00
2024-02-06T03:20:06.357Z,100.00
2024-02-06T03:22:09.157Z,100.00
2024-02-06T03:24:11.870Z,100.00
2024-02-06T03:26:14.606Z,100.00
2024-02-06T03:28:17.487Z,100.00
2024-02-06T03:30:23.652Z,100.00
2024-02-06T03:32:28.570Z,100.00
2024-02-06T03:34:31.558Z,100.00
2024-02-06T03:36:34.383Z,100.00
2024-02-06T03:38:37.303Z,100.00
2024-02-06T03:40:40.160Z,100.00
2024-02-06T03:42:42.978Z,100.00
2024-02-06T03:44:45.693Z,100.00
2024-02-06T03:46:48.469Z,100.00
2024-02-06T03:48:51.383Z,100.00
2024-02-06T03:50:54.535Z,100.00
2024-02-06T03:52:57.238Z,100.00
2024-02-06T03:54:59.943Z,100.00
2024-02-06T03:57:02.962Z,100.00
2024-02-06T03:59:06.282Z,100.00
2024-02-06T04:01:09.185Z,100.00
2024-02-06T04:03:11.989Z,100.00
2024-02-06T04:05:14.806Z,100.00
2024-02-06T04:07:18.529Z,100.00
2024-02-06T04:09:21.505Z,100.00
2024-02-06T04:11:24.217Z,100.00
2024-02-06T04:13:26.983Z,100.00
2024-02-06T04:15:30.076Z,100.00
2024-02-06T04:17:32.801Z,100.00
2024-02-06T04:19:35.976Z,100.00
2024-02-06T04:21:39.762Z,100.00
2024-02-06T04:23:42.473Z,100.00
2024-02-06T04:25:46.083Z,100.00
2024-02-06T04:27:49.141Z,100.00
2024-02-06T04:29:52.016Z,100.00
2024-02-06T04:31:54.869Z,100.00
2024-02-06T04:33:57.862Z,100.00
2024-02-06T04:36:00.552Z,100.00
2024-02-06T04:38:03.800Z,100.00
2024-02-06T04:40:07.740Z,100.00
2024-02-06T04:42:10.511Z,100.00
2024-02-06T04:44:13.129Z,100.00
2024-02-06T04:46:17.194Z,100.00
2024-02-06T04:48:19.940Z,100.00
2024-02-06T04:50:23.110Z,100.00
2024-02-06T04:52:26.044Z,100.00
2024-02-06T04:54:28.989Z,100.00
2024-02-06T04:56:31.712Z,100.00
2024-02-06T04:58:34.932Z,100.00
2024-02-06T05:00:38.367Z,100.00
2024-02-06T05:02:41.174Z,100.00
2024-02-06T05:04:45.224Z,100.00
2024-02-06T05:06:49.306Z,100.00
2024-02-06T05:08:52.165Z,100.00
2024-02-06T05:10:55.333Z,100.00
2024-02-06T05:12:58.031Z,100.00
2024-02-06T05:15:00.828Z,100.00
2024-02-06T05:17:05.065Z,100.00
2024-02-06T05:19:14.619Z,100.00
2024-02-06T05:21:17.575Z,100.00
2024-02-06T05:23:20.496Z,100.00
2024-02-06T05:25:24.866Z,100.00
2024-02-06T05:27:28.068Z,100.00
2024-02-06T05:29:32.038Z,100.00
2024-02-06T05:31:35.477Z,100.00
2024-02-06T05:33:38.450Z,100.00
2024-02-06T05:35:41.458Z,100.00
2024-02-06T05:37:44.407Z,100.00
2024-02-06T05:39:47.242Z,100.00
2024-02-06T05:41:50.017Z,100.00
2024-02-06T05:43:53.288Z,100.00
2024-02-06T05:45:58.097Z,100.00
2024-02-06T05:48:01.484Z,100.00
2024-02-06T05:50:05.473Z,100.00
2024-02-06T05:52:08.420Z,100.00
2024-02-06T05:54:11.238Z,100.00
2024-02-06T05:56:13.946Z,100.00
2024-02-06T05:58:16.763Z,100.00
2024-02-06T06:00:20.034Z,100.00
2024-02-06T06:02:22.863Z,100.00
2024-02-06T06:04:29.574Z,100.00
2024-02-06T06:06:34.286Z,100.00
2024-02-06T06:08:37.356Z,100.00
2024-02-06T06:10:40.134Z,100.00
2024-02-06T06:12:42.892Z,100.00
2024-02-06T06:14:45.838Z,100.00
2024-02-06T06:16:48.909Z,100.00
2024-02-06T06:18:53.033Z,100.00
2024-02-06T06:20:56.026Z,100.00
2024-02-06T06:22:59.140Z,100.00
2024-02-06T06:25:01.976Z,100.00
2024-02-06T06:27:06.884Z,100.00
2024-02-06T06:29:12.517Z,100.00
2024-02-06T06:31:15.644Z,100.00
2024-02-06T06:33:19.933Z,100.00
2024-02-06T06:35:23.139Z,100.00
2024-02-06T06:37:26.041Z,100.00
2024-02-06T06:39:28.912Z,100.00
2024-02-06T06:41:31.638Z,100.00
2024-02-06T06:43:34.456Z,100.00
2024-02-06T06:45:37.711Z,100.00
2024-02-06T06:47:41.265Z,100.00
2024-02-06T06:49:44.197Z,100.00
2024-02-06T06:51:47.925Z,100.00
2024-02-06T06:53:50.688Z,100.00
2024-02-06T06:55:53.437Z,100.00
2024-02-06T06:57:56.448Z,100.00
2024-02-06T06:59:59.244Z,100.00
2024-02-06T07:02:02.391Z,100.00
2024-02-06T07:04:05.857Z,100.00
2024-02-06T07:06:09.241Z,100.00
2024-02-06T07:08:12.185Z,100.00
2024-02-06T07:10:15.077Z,100.00
2024-02-06T07:12:17.987Z,100.00
2024-02-06T07:14:20.988Z,100.00
2024-02-06T07:16:23.745Z,100.00
2024-02-06T07:18:26.551Z,100.00
2024-02-06T07:20:29.405Z,100.00
2024-02-06T07:22:34.901Z,100.00
2024-02-06T07:24:38.282Z,100.00
2024-02-06T07:26:41.182Z,100.00
2024-02-06T07:28:43.949Z,100.00
2024-02-06T07:30:46.806Z,100.00
2024-02-06T07:32:49.613Z,100.00
2024-02-06T07:34:52.424Z,100.00
2024-02-06T07:36:55.253Z,100.00
2024-02-06T07:38:57.996Z,100.00
2024-02-06T07:41:01.106Z,100.00
2024-02-06T07:43:04.179Z,100.00
2024-02-06T07:45:07.313Z,100.00
2024-02-06T07:47:10.215Z,100.00
2024-02-06T07:49:13.931Z,100.00
2024-02-06T07:51:16.694Z,100.00
2024-02-06T07:53:19.421Z,100.00
2024-02-06T07:55:22.423Z,100.00
2024-02-06T07:57:25.350Z,100.00
2024-02-06T07:59:28.101Z,100.00
2024-02-06T08:01:31.028Z,100.00
2024-02-06T08:03:33.851Z,100.00
2024-02-06T08:05:37.141Z,100.00
2024-02-06T08:07:43.114Z,100.00
2024-02-06T08:09:46.330Z,100.00
2024-02-06T08:11:49.030Z,100.00
2024-02-06T08:13:52.707Z,100.00
2024-02-06T08:15:55.836Z,100.00
2024-02-06T08:17:59.012Z,100.00
2024-02-06T08:20:01.825Z,100.00
2024-02-06T08:22:05.360Z,100.00
2024-02-06T08:24:08.517Z,100.00
2024-02-06T08:26:11.435Z,100.00
2024-02-06T08:28:14.290Z,100.00
2024-02-06T08:30:18.417Z,100.00
2024-02-06T08:32:21.262Z,100.00
2024-02-06T08:34:24.089Z,100.00
2024-02-06T08:36:27.142Z,100.00
2024-02-06T08:38:30.293Z,100.00
2024-02-06T08:40:33.520Z,100.00
2024-02-06T08:42:37.304Z,100.00
2024-02-06T08:44:40.388Z,100.00
2024-02-06T08:46:43.229Z,100.00
2024-02-06T08:48:46.133Z,100.00
2024-02-06T08:50:51.342Z,100.00
2024-02-06T08:52:54.232Z,100.00
2024-02-06T08:54:57.038Z,100.00
2024-02-06T08:56:59.753Z,100.00
2024-02-06T08:59:03.107Z,100.00
2024-02-06T09:01:07.631Z,100.00
2024-02-06T09:03:11.151Z,100.00
2024-02-06T09:05:14.205Z,100.00
2024-02-06T09:07:17.835Z,100.00
2024-02-06T09:09:24.795Z,100.00
2024-02-06T09:11:28.628Z,100.00
2024-02-06T09:13:31.644Z,100.00
2024-02-06T09:15:34.687Z,100.00
2024-02-06T09:17:38.046Z,100.00
2024-02-06T09:19:42.676Z,100.00
2024-02-06T09:21:45.854Z,100.00
2024-02-06T09:23:48.596Z,100.00
2024-02-06T09:25:51.339Z,100.00
2024-02-06T09:27:54.065Z,100.00
2024-02-06T09:29:57.371Z,100.00
2024-02-06T09:32:00.240Z,100.00
2024-02-06T09:34:03.088Z,100.00
2024-02-06T09:36:08.089Z,100.00
2024-02-06T09:38:11.833Z,100.00
2024-02-06T09:40:14.654Z,100.00
2024-02-06T09:42:19.097Z,100.00
2024-02-06T09:44:30.252Z,100.00
2024-02-06T09:46:33.100Z,100.00
2024-02-06T09:48:35.849Z,100.00
2024-02-06T09:50:39.242Z,100.00
2024-02-06T09:52:43.716Z,100.00
2024-02-06T09:54:51.358Z,100.00
2024-02-06T09:56:56.696Z,100.00
2024-02-06T09:59:06.813Z,100.00
2024-02-06T10:01:14.287Z,100.00
2024-02-06T10:03:26.907Z,100.00
2024-02-06T10:05:42.525Z,100.00
2024-02-06T10:07:50.531Z,100.00
2024-02-06T10:09:55.858Z,100.00
2024-02-06T10:12:00.538Z,100.00
2024-02-06T10:14:04.680Z,100.00
2024-02-06T10:16:08.098Z,100.00
2024-02-06T10:18:11.056Z,100.00
2024-02-06T10:20:14.617Z,100.00
2024-02-06T10:22:17.695Z,100.00
2024-02-06T10:24:20.802Z,100.00
2024-02-06T10:26:23.666Z,100.00
2024-02-06T10:28:26.904Z,100.00
2024-02-06T10:30:29.859Z,100.00
2024-02-06T10:32:34.534Z,100.00
2024-02-06T10:34:37.611Z,100.00
2024-02-06T10:36:41.332Z,100.00
2024-02-06T10:38:44.453Z,100.00
2024-02-06T10:40:49.331Z,100.00
2024-02-06T10:43:26.561Z,100.00
2024-02-06T10:45:19.045Z,100.00
2024-02-06T10:47:23.451Z,100.00
2024-02-06T10:49:26.738Z,100.00
2024-02-06T10:51:30.269Z,100.00
2024-02-06T10:53:33.483Z,100.00
2024-02-06T10:55:36.274Z,100.00
2024-02-06T10:57:42.867Z,100.00
2024-02-06T10:59:49.147Z,100.00
2024-02-06T11:01:52.721Z,100.00
2024-02-06T11:04:03.787Z,100.00
2024-02-06T11:06:16.790Z,100.00
2024-02-06T11:08:26.018Z,100.00
2024-02-06T11:10:37.707Z,100.00
2024-02-06T11:12:41.149Z,100.00
2024-02-06T11:14:46.149Z,100.00
2024-02-06T11:16:56.721Z,100.00
2024-02-06T11:19:09.474Z,100.00
2024-02-06T11:21:13.226Z,100.00
2024-02-06T11:23:19.823Z,100.00
2024-02-06T11:25:29.082Z,100.00
2024-02-06T11:27:33.400Z,100.00
2024-02-06T11:29:36.567Z,100.00
2024-02-06T11:31:41.402Z,100.00
2024-02-06T11:33:44.561Z,100.00
2024-02-06T11:35:47.655Z,100.00
2024-02-06T11:37:54.848Z,100.00
2024-02-06T11:40:05.706Z,100.00
2024-02-06T11:42:08.550Z,100.00
2024-02-06T11:44:12.701Z,100.00
2024-02-06T11:46:15.988Z,100.00
2024-02-06T11:48:26.662Z,100.00
2024-02-06T11:50:47.115Z,100.00
2024-02-06T11:52:50.036Z,100.00
2024-02-06T11:54:53.010Z,100.00
2024-02-06T11:56:59.910Z,100.00
2024-02-06T11:59:02.862Z,100.00
2024-02-06T12:01:08.388Z,100.00
2024-02-06T12:03:14.724Z,100.00
2024-02-06T12:05:17.613Z,100.00
2024-02-06T12:07:23.589Z,100.00
2024-02-06T12:09:27.231Z,100.00
2024-02-06T12:11:37.019Z,100.00
2024-02-06T12:13:40.173Z,100.00
2024-02-06T12:15:43.466Z,100.00
2024-02-06T12:17:49.761Z,100.00
2024-02-06T12:19:53.583Z,100.00
2024-02-06T12:22:05.454Z,100.00
2024-02-06T12:24:08.952Z,100.00
2024-02-06T12:26:12.307Z,100.00
2024-02-06T12:28:17.330Z,100.00
2024-02-06T12:30:24.166Z,100.00
2024-02-06T12:32:27.682Z,100.00
2024-02-06T12:34:30.616Z,99.90
2024-02-06T12:36:33.762Z,99.64
2024-02-06T12:38:36.861Z,99.90
2024-02-06T12:40:39.985Z,99.71
2024-02-06T12:42:48.606Z,99.58
2024-02-06T12:44:52.337Z,99.35
2024-02-06T12:46:58.222Z,99.04
2024-02-06T12:49:01.297Z,99.53
2024-02-06T12:51:04.638Z,99.37
2024-02-06T12:53:08.698Z,98.13
2024-02-06T12:55:15.133Z,98.36
2024-02-06T12:57:18.081Z,99.38
2024-02-06T12:59:28.191Z,98.40
2024-02-06T13:01:35.640Z,99.35
2024-02-06T13:03:41.615Z,99.83
2024-02-06T13:05:45.916Z,99.10
2024-02-06T13:07:49.210Z,98.37
2024-02-06T13:10:02.552Z,98.99
2024-02-06T13:12:07.486Z,99.04
2024-02-06T13:14:10.558Z,99.34
2024-02-06T13:16:16.356Z,99.25
2024-02-06T13:18:21.585Z,99.82
2024-02-06T13:20:24.381Z,100.00
2024-02-06T13:22:27.162Z,100.00
2024-02-06T13:24:31.062Z,100.00
2024-02-06T13:26:33.909Z,99.99
2024-02-06T13:28:36.978Z,99.89
2024-02-06T13:30:39.763Z,100.00
2024-02-06T13:32:42.598Z,100.00
2024-02-06T13:34:45.992Z,100.00
2024-02-06T13:36:48.653Z,100.00
2024-02-06T13:38:51.345Z,99.93
2024-02-06T13:40:54.234Z,100.00
2024-02-06T13:42:57.348Z,100.00
2024-02-06T13:45:00.093Z,100.00
2024-02-06T13:47:02.943Z,99.98
2024-02-06T13:49:05.816Z,99.91
2024-02-06T13:51:10.682Z,100.00
2024-02-06T13:53:15.107Z,100.00
2024-02-06T13:55:19.965Z,100.00
2024-02-06T13:57:23.740Z,100.00
2024-02-06T13:59:27.797Z,100.00
2024-02-06T14:01:31.178Z,100.00
2024-02-06T14:03:33.996Z,100.00
2024-02-06T14:05:36.770Z,100.00
2024-02-06T14:07:40.128Z,100.00
2024-02-06T14:09:43.855Z,100.00
2024-02-06T14:11:47.237Z,100.00
2024-02-06T14:13:50.402Z,100.00
2024-02-06T14:15:57.615Z,100.00
2024-02-06T14:18:00.635Z,100.00
2024-02-06T14:20:03.820Z,100.00
2024-02-06T14:22:07.975Z,100.00
2024-02-06T14:24:11.093Z,100.00
2024-02-06T14:26:13.931Z,100.00
2024-02-06T14:28:16.910Z,100.00
2024-02-06T14:30:19.933Z,100.00
2024-02-06T14:32:23.108Z,100.00
2024-02-06T14:34:25.951Z,100.00
2024-02-06T14:36:28.953Z,100.00
2024-02-06T14:38:31.838Z,100.00
2024-02-06T14:40:34.767Z,100.00
2024-02-06T14:42:37.638Z,100.00
2024-02-06T14:44:47.731Z,100.00
2024-02-06T14:46:54.788Z,100.00
2024-02-06T14:48:57.653Z,100.00
2024-02-06T14:51:00.558Z,100.00
2024-02-06T14:53:04.650Z,100.00
2024-02-06T14:55:08.012Z,100.00
2024-02-06T14:57:10.812Z,100.00
2024-02-06T14:59:14.136Z,100.00
2024-02-06T15:01:16.990Z,100.00
2024-02-06T15:03:19.842Z,100.00
2024-02-06T15:05:27.641Z,100.00
2024-02-06T15:07:32.476Z,100.00
2024-02-06T15:09:37.648Z,100.00
2024-02-06T15:11:40.700Z,100.00
2024-02-06T15:13:43.584Z,100.00
2024-02-06T15:15:46.297Z,100.00
2024-02-06T15:17:49.165Z,100.00
2024-02-06T15:19:52.161Z,100.00
2024-02-06T15:21:55.038Z,100.00
2024-02-06T15:23:57.731Z,100.00
2024-02-06T15:26:01.258Z,100.00
2024-02-06T15:28:05.462Z,100.00
2024-02-06T15:30:08.877Z,100.00
2024-02-06T15:32:11.782Z,100.00
2024-02-06T15:34:14.590Z,100.00
2024-02-06T15:36:17.428Z,100.00
2024-02-06T15:38:20.090Z,100.00
2024-02-06T15:40:23.002Z,100.00
2024-02-06T15:42:25.826Z,100.00
2024-02-06T15:44:28.494Z,100.00
2024-02-06T15:46:31.737Z,100.00
2024-02-06T15:48:37.976Z,100.00
2024-02-06T15:50:41.105Z,100.00
2024-02-06T15:52:43.755Z,100.00
2024-02-06T15:54:46.568Z,100.00
2024-02-06T15:56:49.398Z,100.00
2024-02-06T15:58:52.210Z,100.00
2024-02-06T16:00:55.087Z,100.00
2024-02-06T16:02:58.767Z,100.00
2024-02-06T16:05:02.162Z,100.00
2024-02-06T16:07:08.118Z,99.65
2024-02-06T16:09:14.795Z,100.00
2024-02-06T16:11:17.464Z,99.67
2024-02-06T16:13:23.424Z,100.00
2024-02-06T16:15:26.913Z,99.93
2024-02-06T16:17:29.690Z,99.96
2024-02-06T16:19:37.031Z,99.80
2024-02-06T16:21:42.057Z,99.44
2024-02-06T16:23:44.685Z,98.89
2024-02-06T16:25:47.450Z,99.12
2024-02-06T16:27:50.708Z,99.23
2024-02-06T16:29:53.476Z,99.72
2024-02-06T16:31:56.467Z,98.49
2024-02-06T16:33:59.510Z,98.59
2024-02-06T16:36:02.876Z,99.17
2024-02-06T16:38:06.070Z,99.06
2024-02-06T16:40:14.798Z,98.93
2024-02-06T16:42:18.095Z,98.65
2024-02-06T16:44:22.865Z,99.42
2024-02-06T16:46:25.618Z,99.00
2024-02-06T16:48:28.476Z,99.18
2024-02-06T16:50:31.634Z,99.44
2024-02-06T16:52:34.484Z,99.31
2024-02-06T16:54:37.226Z,99.52
2024-02-06T16:56:39.920Z,99.14
2024-02-06T16:58:44.436Z,99.33
2024-02-06T17:00:47.360Z,99.39
2024-02-06T17:02:50.106Z,99.72
2024-02-06T17:04:53.596Z,98.98
2024-02-06T17:06:56.662Z,99.00
2024-02-06T17:08:59.360Z,99.58
2024-02-06T17:11:03.061Z,100.00
2024-02-06T17:13:05.852Z,99.51
2024-02-06T17:15:11.826Z,100.00
2024-02-06T17:17:14.941Z,99.75
2024-02-06T17:19:17.903Z,100.00
2024-02-06T17:21:20.786Z,100.00
2024-02-06T17:23:23.650Z,99.76
2024-02-06T17:25:29.820Z,100.00
2024-02-06T17:27:32.572Z,100.00
2024-02-06T17:29:35.478Z,100.00
2024-02-06T17:31:38.765Z,100.00
2024-02-06T17:33:41.681Z,100.00
2024-02-06T17:35:44.769Z,100.00
2024-02-06T17:37:47.855Z,100.00
2024-02-06T17:39:50.722Z,100.00
2024-02-06T17:41:55.035Z,100.00
2024-02-06T17:43:58.847Z,100.00
2024-02-06T17:46:01.740Z,100.00
2024-02-06T17:48:06.950Z,100.00
2024-02-06T17:50:10.304Z,100.00
2024-02-06T17:52:13.232Z,100.00
2024-02-06T17:54:16.275Z,100.00
2024-02-06T17:56:19.035Z,100.00
2024-02-06T17:58:22.064Z,100.00
2024-02-06T18:00:25.709Z,100.00
2024-02-06T18:02:41.914Z,100.00
2024-02-06T18:04:52.609Z,100.00
2024-02-06T18:06:57.685Z,100.00
2024-02-06T18:09:00.592Z,100.00
2024-02-06T18:11:03.332Z,100.00
2024-02-06T18:13:06.273Z,100.00
2024-02-06T18:15:10.906Z,100.00
2024-02-06T18:17:17.401Z,100.00
2024-02-06T18:19:20.578Z,100.00
2024-02-06T18:21:24.143Z,100.00
2024-02-06T18:23:30.236Z,100.00
2024-02-06T18:25:33.066Z,100.00
2024-02-06T18:27:36.182Z,100.00
2024-02-06T18:29:39.414Z,100.00
2024-02-06T18:31:42.693Z,100.00
2024-02-06T18:33:45.580Z,100.00
2024-02-06T18:35:48.418Z,100.00
2024-02-06T18:37:51.500Z,100.00
2024-02-06T18:39:54.269Z,100.00
2024-02-06T18:41:57.077Z,100.00
2024-02-06T18:44:03.510Z,100.00
2024-02-06T18:46:06.407Z,100.00
2024-02-06T18:48:09.385Z,100.00
2024-02-06T18:50:12.326Z,100.00
2024-02-06T18:52:15.311Z,100.00
2024-02-06T18:54:18.049Z,100.00
2024-02-06T18:56:27.404Z,100.00
2024-02-06T18:58:30.139Z,100.00
2024-02-06T19:00:32.889Z,100.00
2024-02-06T19:02:37.355Z,100.00
2024-02-06T19:04:40.340Z,100.00
2024-02-06T19:06:44.727Z,100.00
2024-02-06T19:08:47.528Z,100.00
2024-02-06T19:10:50.394Z,100.00
2024-02-06T19:12:57.256Z,100.00
2024-02-06T19:15:00.220Z,100.00
2024-02-06T19:17:02.937Z,100.00
2024-02-06T19:19:06.236Z,100.00
2024-02-06T19:21:09.000Z,100.00
2024-02-06T19:23:11.644Z,100.00
2024-02-06T19:25:15.879Z,100.00
2024-02-06T19:27:18.619Z,100.00
2024-02-06T19:29:21.311Z,100.00
2024-02-06T19:31:24.058Z,100.00
2024-02-06T19:33:26.885Z,100.00
2024-02-06T19:35:29.820Z,100.00
2024-02-06T19:37:35.265Z,100.00
2024-02-06T19:39:38.391Z,100.00
2024-02-06T19:41:45.634Z,100.00
2024-02-06T19:43:48.444Z,100.00
2024-02-06T19:45:51.173Z,100.00
2024-02-06T19:47:53.995Z,100.00
2024-02-06T19:49:57.176Z,100.00
2024-02-06T19:52:00.168Z,100.00
2024-02-06T19:54:02.865Z,100.00
2024-02-06T19:56:06.453Z,100.00
2024-02-06T19:58:09.292Z,100.00
2024-02-06T20:00:12.364Z,100.00
2024-02-06T20:02:15.352Z,100.00
2024-02-06T20:04:18.132Z,100.00
2024-02-06T20:06:20.884Z,100.00
2024-02-06T20:08:25.356Z,100.00
2024-02-06T20:10:28.125Z,100.00
2024-02-06T20:12:30.844Z,100.00
2024-02-06T20:14:33.653Z,100.00
2024-02-06T20:16:36.394Z,100.00
2024-02-06T20:18:39.164Z,100.00
2024-02-06T20:20:42.091Z,100.00
2024-02-06T20:22:44.924Z,100.00
2024-02-06T20:24:47.625Z,100.00
2024-02-06T20:26:50.723Z,100.00
2024-02-06T20:28:53.467Z,100.00
2024-02-06T20:30:56.334Z,100.00
2024-02-06T20:33:01.738Z,100.00
2024-02-06T20:35:06.439Z,100.00
2024-02-06T20:37:09.205Z,100.00
2024-02-06T20:39:12.864Z,100.00
2024-02-06T20:41:15.696Z,100.00
2024-02-06T20:43:18.567Z,100.00
2024-02-06T20:45:21.505Z,100.00
2024-02-06T20:47:24.880Z,100.00
2024-02-06T20:49:27.644Z,100.00
2024-02-06T20:51:30.989Z,100.00
2024-02-06T20:53:33.708Z,100.00
2024-02-06T20:55:36.657Z,100.00
2024-02-06T20:57:39.554Z,100.00
2024-02-06T20:59:42.764Z,100.00
2024-02-06T21:01:45.468Z,100.00
2024-02-06T21:03:48.303Z,100.00
2024-02-06T21:05:50.930Z,100.00
2024-02-06T21:07:53.621Z,100.00
2024-02-06T21:09:56.512Z,100.00
2024-02-06T21:11:59.186Z,100.00
2024-02-06T21:14:02.158Z,100.00
2024-02-06T21:16:05.600Z,100.00
2024-02-06T21:18:08.439Z,100.00
2024-02-06T21:20:13.847Z,100.00
2024-02-06T21:22:17.070Z,100.00
2024-02-06T21:24:20.163Z,100.00
2024-02-06T21:26:24.374Z,100.00
2024-02-06T21:28:27.446Z,100.00
2024-02-06T21:30:30.225Z,100.00
2024-02-06T21:32:33.254Z,100.00
2024-02-06T21:34:36.172Z,100.00
2024-02-06T21:36:41.598Z,100.00
2024-02-06T21:38:44.378Z,100.00
2024-02-06T21:40:47.336Z,100.00
2024-02-06T21:42:50.368Z,100.00
2024-02-06T21:44:53.267Z,100.00
2024-02-06T21:46:56.020Z,100.00
2024-02-06T21:48:58.944Z,100.00
2024-02-06T21:51:01.671Z,100.00
2024-02-06T21:53:05.455Z,100.00
2024-02-06T21:55:12.741Z,100.00
2024-02-06T21:57:16.927Z,100.00
2024-02-06T21:59:19.798Z,100.00
2024-02-06T22:01:22.729Z,100.00
2024-02-06T22:03:25.884Z,100.00
2024-02-06T22:05:28.788Z,100.00
2024-02-06T22:07:31.579Z,100.00
2024-02-06T22:09:34.491Z,100.00
2024-02-06T22:11:37.408Z,100.00
2024-02-06T22:13:40.316Z,100.00
2024-02-06T22:15:43.533Z,100.00
2024-02-06T22:17:46.393Z,100.00
2024-02-06T22:19:50.581Z,100.00
2024-02-06T22:21:53.633Z,100.00
2024-02-06T22:23:56.907Z,100.00
2024-02-06T22:25:59.613Z,100.00
2024-02-06T22:28:02.412Z,100.00
2024-02-06T22:30:06.320Z,100.00
2024-02-06T22:32:10.686Z,100.00
2024-02-06T22:34:13.985Z,100.00
2024-02-06T22:36:18.024Z,100.00
2024-02-06T22:38:20.673Z,99.81
2024-02-06T22:40:23.581Z,99.87
2024-02-06T22:42:26.321Z,100.00
2024-02-06T22:44:29.032Z,100.00
2024-02-06T22:46:31.889Z,99.88
2024-02-06T22:48:34.761Z,100.00
2024-02-06T22:50:39.232Z,100.00
2024-02-06T22:52:42.117Z,100.00
2024-02-06T22:54:45.242Z,100.00
2024-02-06T22:56:48.128Z,99.79
2024-02-06T22:58:51.078Z,99.99
2024-02-06T23:00:54.094Z,99.78
2024-02-06T23:03:01.110Z,99.55
2024-02-06T23:05:04.489Z,99.25
2024-02-06T23:07:07.429Z,99.41
2024-02-06T23:09:12.408Z,99.79
2024-02-06T23:11:15.298Z,99.48
2024-02-06T23:13:18.260Z,99.80
2024-02-06T23:15:24.116Z,98.77
2024-02-06T23:17:26.958Z,99.31
2024-02-06T23:19:30.413Z,99.23
2024-02-06T23:21:35.817Z,99.50
2024-02-06T23:23:38.529Z,98.95
2024-02-06T23:25:41.642Z,99.59
2024-02-06T23:27:45.767Z,99.13
2024-02-06T23:29:48.483Z,99.37
2024-02-06T23:31:51.263Z,98.65
2024-02-06T23:33:54.182Z,99.07
2024-02-06T23:35:57.209Z,99.11
2024-02-06T23:38:00.071Z,98.71
2024-02-06T23:40:03.081Z,98.59
2024-02-06T23:42:07.511Z,99.14
2024-02-06T23:44:10.687Z,99.10
2024-02-06T23:46:13.395Z,98.26
2024-02-06T23:48:16.192Z,98.43
2024-02-06T23:50:19.230Z,98.57
2024-02-06T23:52:22.060Z,98.32
2024-02-06T23:54:24.925Z,98.33
2024-02-06T23:56:28.047Z,98.46
2024-02-06T23:58:30.788Z,98.79
